Turnerville, Alabama
Current Conditions -  °F | °C
As of 11:56 PM on Wednesday 26 Nov 2014 (Local Time) from KMOB Reporting Station
Clear Clear  
Wind Chill: 53°   Ceiling: Unl
Heat Index: 53°   Visibility: 10mi
Dew Point: 44°   Wind: 6mph
Humidity: 71%   Direction: 300°WNW
Pressure: 30.24"   Gusts: NA
Location:  30.9846°N, 88.1229°W
Report Text: KMOB 270556Z AUTO 30005KT 10SM CLR 12/07 A3024 RMK AO2 SLP237 T01170067 10128 20083 401720011 51014
Loading
Personal Weather Stations






























Interactive Weather Map New forecast layout! Learn more

10-Day Weather Forecast

Advertisements
Track Severe Weather on mobile